createdAt,value
2019-01-10T00:00:16.733Z,0
2019-01-10T00:01:26.831Z,0
2019-01-10T00:02:36.644Z,0
2019-01-10T00:03:46.700Z,0
2019-01-10T00:04:56.730Z,0
2019-01-10T00:06:06.532Z,0
2019-01-10T00:07:16.689Z,0
2019-01-10T00:08:26.496Z,0
2019-01-10T00:09:36.567Z,0
2019-01-10T00:10:46.651Z,0
2019-01-10T00:11:56.730Z,0
2019-01-10T00:13:06.261Z,0
2019-01-10T00:14:16.323Z,0
2019-01-10T00:15:26.169Z,0
2019-01-10T00:16:35.967Z,0
2019-01-10T00:17:46.036Z,0
2019-01-10T00:18:57.889Z,0
2019-01-10T00:20:08.297Z,0
2019-01-10T00:21:17.943Z,0
2019-01-10T00:22:27.791Z,0
2019-01-10T00:23:37.624Z,0
2019-01-10T00:24:47.678Z,0
2019-01-10T00:25:57.466Z,0
2019-01-10T00:27:08.307Z,0
2019-01-10T00:28:18.115Z,0
2019-01-10T00:29:27.900Z,0
2019-01-10T00:30:37.937Z,0
2019-01-10T00:31:47.999Z,0
2019-01-10T00:32:58.050Z,0
2019-01-10T00:34:08.804Z,0
2019-01-10T00:35:18.952Z,0
2019-01-10T00:36:29.017Z,0
2019-01-10T00:37:39.067Z,0
2019-01-10T00:38:49.211Z,0
2019-01-10T00:39:59.278Z,0
2019-01-10T00:41:09.330Z,0
2019-01-10T00:42:19.408Z,0
2019-01-10T00:43:29.454Z,0
2019-01-10T00:44:39.499Z,0
2019-01-10T00:45:49.295Z,0
2019-01-10T00:46:59.326Z,0
2019-01-10T00:48:09.379Z,0
2019-01-10T00:49:19.484Z,0
2019-01-10T00:50:29.032Z,0
2019-01-10T00:51:39.075Z,0
2019-01-10T00:52:49.129Z,0
2019-01-10T00:53:59.164Z,0
2019-01-10T00:55:08.726Z,0
2019-01-10T00:56:18.787Z,0
2019-01-10T00:57:28.599Z,0
2019-01-10T00:58:38.643Z,0
2019-01-10T00:59:48.715Z,0
2019-01-10T01:00:58.496Z,0
2019-01-10T01:02:10.016Z,0
2019-01-10T01:03:19.832Z,0
2019-01-10T01:04:29.882Z,0
2019-01-10T01:05:39.983Z,0
2019-01-10T01:06:49.788Z,0
2019-01-10T01:07:59.979Z,0
2019-01-10T01:09:09.771Z,0
2019-01-10T01:10:19.845Z,0
2019-01-10T01:11:29.888Z,0
2019-01-10T01:12:39.690Z,0
2019-01-10T01:13:49.726Z,0
2019-01-10T01:14:59.808Z,0
2019-01-10T01:16:09.877Z,0
2019-01-10T01:17:20.796Z,0
2019-01-10T01:18:30.847Z,0
2019-01-10T01:19:40.909Z,0
2019-01-10T01:20:50.951Z,0
2019-01-10T01:22:01.359Z,0
2019-01-10T01:23:11.171Z,0
2019-01-10T01:24:21.235Z,0
2019-01-10T01:25:31.271Z,0
2019-01-10T01:26:41.142Z,0
2019-01-10T01:27:50.933Z,0
2019-01-10T01:29:03.042Z,0
2019-01-10T01:30:13.177Z,0
2019-01-10T01:31:22.980Z,0
2019-01-10T01:32:33.128Z,0
2019-01-10T01:33:43.176Z,0
2019-01-10T01:34:53.235Z,0
2019-01-10T01:36:03.328Z,0
2019-01-10T01:37:13.181Z,0
2019-01-10T01:38:23.233Z,0
2019-01-10T01:39:33.024Z,0
2019-01-10T01:40:43.077Z,0
2019-01-10T01:41:53.118Z,0
2019-01-10T01:43:12.067Z,0
2019-01-10T01:44:22.130Z,0
2019-01-10T01:45:31.929Z,0
2019-01-10T01:46:41.975Z,0
2019-01-10T01:47:52.027Z,0
2019-01-10T01:49:02.410Z,0
2019-01-10T01:50:12.466Z,0
2019-01-10T01:51:22.504Z,0
2019-01-10T01:52:32.548Z,0
2019-01-10T01:53:42.658Z,0
2019-01-10T01:54:52.714Z,0
2019-01-10T01:56:02.670Z,0
2019-01-10T01:57:12.227Z,0
2019-01-10T01:58:22.277Z,0
2019-01-10T01:59:32.818Z,0
2019-01-10T02:00:42.882Z,0
2019-01-10T02:01:52.933Z,0
2019-01-10T02:03:02.982Z,0
2019-01-10T02:04:12.774Z,0
2019-01-10T02:05:22.828Z,0
2019-01-10T02:06:32.882Z,0
2019-01-10T02:07:42.928Z,0
2019-01-10T02:08:52.730Z,0
2019-01-10T02:10:05.499Z,0
2019-01-10T02:11:15.674Z,0
2019-01-10T02:12:25.743Z,0
2019-01-10T02:13:35.814Z,0
2019-01-10T02:14:45.879Z,0
2019-01-10T02:15:55.666Z,0
2019-01-10T02:17:05.493Z,0
2019-01-10T02:18:15.549Z,0
2019-01-10T02:19:25.356Z,0
2019-01-10T02:20:34.902Z,0
2019-01-10T02:21:44.963Z,0
2019-01-10T02:22:55.057Z,0
2019-01-10T02:24:05.149Z,0
2019-01-10T02:25:15.190Z,0
2019-01-10T02:26:25.019Z,0
2019-01-10T02:27:34.808Z,0
2019-01-10T02:28:44.609Z,0
2019-01-10T02:29:54.406Z,0
2019-01-10T02:31:04.905Z,0
2019-01-10T02:32:15.055Z,0
2019-01-10T02:33:25.129Z,0
2019-01-10T02:34:35.171Z,0
2019-01-10T02:35:45.241Z,0
2019-01-10T02:36:55.284Z,0
2019-01-10T02:38:06.845Z,0
2019-01-10T02:39:16.632Z,0
2019-01-10T02:40:26.677Z,0
2019-01-10T02:41:35.962Z,0
2019-01-10T02:42:45.763Z,0
2019-01-10T02:43:55.831Z,0
2019-01-10T02:45:05.886Z,0
2019-01-10T02:46:15.714Z,0
2019-01-10T02:47:25.788Z,0
2019-01-10T02:48:35.873Z,0
2019-01-10T02:49:45.683Z,0
2019-01-10T02:50:55.733Z,0
2019-01-10T02:52:05.889Z,0
2019-01-10T02:53:15.970Z,0
2019-01-10T02:54:27.597Z,0
2019-01-10T02:55:37.386Z,0
2019-01-10T02:56:47.557Z,0
2019-01-10T02:57:57.383Z,0
2019-01-10T02:59:07.183Z,0
2019-01-10T03:00:17.849Z,0
2019-01-10T03:01:27.897Z,0
2019-01-10T03:02:37.950Z,0
2019-01-10T03:35:19.294Z,0
2019-01-10T03:36:29.396Z,0
2019-01-10T03:37:39.458Z,0
2019-01-10T03:38:49.533Z,0
2019-01-10T03:39:59.316Z,0
2019-01-10T03:41:09.217Z,0
2019-01-10T03:42:19.276Z,0
2019-01-10T03:43:28.835Z,0
2019-01-10T03:44:41.751Z,0
2019-01-10T03:45:51.580Z,0
2019-01-10T03:47:01.375Z,0
2019-01-10T03:48:10.929Z,0
2019-01-10T03:49:21.194Z,0
2019-01-10T03:50:31.076Z,0
2019-01-10T03:51:40.883Z,0
2019-01-10T03:52:51.000Z,0
2019-01-10T03:54:01.047Z,0
2019-01-10T03:55:11.104Z,0
2019-01-10T03:56:21.162Z,0
2019-01-10T03:57:30.456Z,0
2019-01-10T03:58:40.505Z,0
2019-01-10T03:59:52.699Z,0
2019-01-10T04:01:05.496Z,0
2019-01-10T04:02:15.561Z,0
2019-01-10T04:03:25.633Z,0
2019-01-10T04:04:35.422Z,0
2019-01-10T04:05:45.463Z,0
2019-01-10T04:06:55.594Z,0
2019-01-10T04:08:07.872Z,0
2019-01-10T04:09:17.696Z,0
2019-01-10T04:10:27.806Z,0
2019-01-10T04:11:37.605Z,0
2019-01-10T04:12:47.409Z,0
2019-01-10T04:14:04.763Z,0
2019-01-10T04:15:14.564Z,0
2019-01-10T04:16:24.662Z,0
2019-01-10T04:17:34.711Z,0
2019-01-10T04:18:44.781Z,0
2019-01-10T04:19:55.071Z,0
2019-01-10T04:21:16.462Z,0
2019-01-10T04:22:26.720Z,0
2019-01-10T04:23:36.798Z,0
2019-01-10T04:24:46.835Z,0
2019-01-10T04:25:56.622Z,0
2019-01-10T04:27:06.981Z,0
2019-01-10T04:28:17.051Z,0
2019-01-10T04:29:27.160Z,0
2019-01-10T04:30:37.212Z,0
2019-01-10T04:31:47.019Z,0
2019-01-10T04:32:56.832Z,0
2019-01-10T04:34:06.620Z,0
2019-01-10T04:35:16.436Z,0
2019-01-10T04:36:26.500Z,0
2019-01-10T04:37:38.012Z,0
2019-01-10T04:38:47.576Z,0
2019-01-10T04:39:57.369Z,0
2019-01-10T04:41:07.185Z,0
2019-01-10T04:42:17.258Z,0
2019-01-10T04:43:29.586Z,0
2019-01-10T04:44:39.634Z,0
2019-01-10T04:45:49.437Z,0
2019-01-10T04:46:59.511Z,0
2019-01-10T04:48:09.332Z,0
2019-01-10T04:49:19.393Z,0
2019-01-10T04:50:29.454Z,0
2019-01-10T04:51:39.516Z,0
2019-01-10T04:52:49.573Z,0
2019-01-10T04:53:59.358Z,0
2019-01-10T04:55:09.421Z,0
2019-01-10T04:56:19.481Z,0
2019-01-10T04:57:29.559Z,0
2019-01-10T04:58:39.100Z,0
2019-01-10T04:59:49.165Z,0
2019-01-10T05:00:59.224Z,0
2019-01-10T05:02:18.042Z,0
2019-01-10T05:03:28.099Z,0
2019-01-10T05:04:37.892Z,0
2019-01-10T05:05:47.948Z,0
2019-01-10T05:06:57.995Z,0
2019-01-10T05:08:10.159Z,0
2019-01-10T05:09:20.209Z,0
2019-01-10T05:10:30.344Z,0
2019-01-10T05:11:40.478Z,0
2019-01-10T05:12:50.554Z,0
2019-01-10T05:14:00.612Z,0
2019-01-10T05:15:10.671Z,0
2019-01-10T05:16:20.485Z,0
2019-01-10T05:17:32.383Z,0
2019-01-10T05:18:42.593Z,0
2019-01-10T05:19:52.398Z,0
2019-01-10T05:21:02.203Z,0
2019-01-10T05:22:12.367Z,0
2019-01-10T05:23:24.606Z,0
2019-01-10T05:24:34.652Z,0
2019-01-10T05:25:44.717Z,0
2019-01-10T05:26:54.509Z,0
2019-01-10T05:28:04.330Z,0
2019-01-10T05:29:14.416Z,0
2019-01-10T05:30:24.228Z,0
2019-01-10T05:31:34.270Z,0
2019-01-10T05:32:44.076Z,0
2019-01-10T05:33:54.121Z,0
2019-01-10T05:35:05.035Z,0
2019-01-10T05:36:14.820Z,0
2019-01-10T05:37:24.897Z,0
2019-01-10T05:38:34.991Z,0
2019-01-10T05:39:54.667Z,0
2019-01-10T05:41:04.473Z,0
2019-01-10T05:42:16.109Z,0
2019-01-10T05:43:26.209Z,0
2019-01-10T05:44:36.300Z,0
2019-01-10T05:45:46.372Z,0
2019-01-10T05:46:56.429Z,0
2019-01-10T05:48:06.499Z,0
2019-01-10T05:49:16.318Z,0
2019-01-10T05:50:26.382Z,0
2019-01-10T05:51:36.215Z,0
2019-01-10T05:52:46.278Z,0
2019-01-10T05:53:56.069Z,0
2019-01-10T05:55:05.881Z,0
2019-01-10T05:56:22.939Z,0
2019-01-10T05:57:33.009Z,0
2019-01-10T05:58:44.475Z,0
2019-01-10T05:59:54.435Z,0
2019-01-10T06:01:04.509Z,0
2019-01-10T06:02:14.581Z,0
2019-01-10T06:03:24.624Z,0
2019-01-10T06:04:34.682Z,0
2019-01-10T06:05:44.741Z,0
2019-01-10T06:06:54.812Z,0
2019-01-10T06:08:05.054Z,0
2019-01-10T06:09:15.096Z,0
2019-01-10T06:10:25.278Z,0
2019-01-10T06:11:35.374Z,0
2019-01-10T06:12:45.414Z,0
2019-01-10T06:13:55.503Z,4
2019-01-10T06:15:06.203Z,4
2019-01-10T06:16:15.997Z,4
2019-01-10T06:17:26.042Z,0
2019-01-10T06:18:36.079Z,4
2019-01-10T06:19:45.869Z,4
2019-01-10T06:20:55.932Z,4
2019-01-10T06:22:05.739Z,8
2019-01-10T06:23:17.892Z,8
2019-01-10T06:24:28.212Z,8
2019-01-10T06:25:38.027Z,8
2019-01-10T06:26:48.109Z,12
2019-01-10T06:27:58.182Z,12
2019-01-10T06:29:10.369Z,16
2019-01-10T06:30:20.485Z,16
2019-01-10T06:31:30.527Z,20
2019-01-10T06:32:40.360Z,24
2019-01-10T06:33:50.423Z,28
2019-01-10T06:35:00.268Z,28
2019-01-10T06:36:10.333Z,36
2019-01-10T06:37:20.386Z,40
2019-01-10T06:38:30.279Z,44
2019-01-10T06:39:40.365Z,52
2019-01-10T06:40:50.435Z,56
2019-01-10T06:42:00.492Z,64
2019-01-10T06:43:10.580Z,68
2019-01-10T06:44:21.569Z,76
2019-01-10T06:45:31.788Z,84
2019-01-10T06:46:41.849Z,92
2019-01-10T06:47:51.905Z,100
2019-01-10T06:49:02.890Z,112
2019-01-10T06:50:12.941Z,120
2019-01-10T06:51:22.984Z,124
2019-01-10T06:52:33.047Z,136
2019-01-10T06:53:43.126Z,144
2019-01-10T06:55:03.742Z,160
2019-01-10T06:56:13.279Z,164
2019-01-10T06:57:23.341Z,168
2019-01-10T06:58:33.201Z,176
2019-01-10T06:59:43.250Z,180
2019-01-10T07:00:53.046Z,184
2019-01-10T07:02:03.093Z,184
2019-01-10T07:03:14.770Z,184
2019-01-10T07:04:24.550Z,188
2019-01-10T07:05:34.640Z,192
2019-01-10T07:06:45.073Z,200
2019-01-10T07:08:03.641Z,204
2019-01-10T07:09:13.537Z,208
2019-01-10T07:10:23.597Z,216
2019-01-10T07:11:33.664Z,220
2019-01-10T07:12:44.483Z,232
2019-01-10T07:13:54.285Z,244
2019-01-10T07:15:04.326Z,252
2019-01-10T07:16:14.369Z,264
2019-01-10T07:17:24.180Z,280
2019-01-10T07:18:34.232Z,292
2019-01-10T07:19:44.047Z,308
2019-01-10T07:20:54.680Z,324
2019-01-10T07:22:04.994Z,348
2019-01-10T07:23:14.795Z,364
2019-01-10T07:24:26.066Z,384
2019-01-10T07:25:36.109Z,408
2019-01-10T07:26:46.150Z,432
2019-01-10T07:27:56.636Z,460
2019-01-10T07:29:07.829Z,484
2019-01-10T07:30:17.696Z,508
2019-01-10T07:31:27.755Z,536
2019-01-10T07:32:37.868Z,560
2019-01-10T07:33:48.003Z,584
2019-01-10T07:34:57.806Z,604
2019-01-10T07:36:08.012Z,628
2019-01-10T07:37:20.355Z,664
2019-01-10T07:38:30.455Z,700
2019-01-10T07:39:40.516Z,740
2019-01-10T07:40:50.341Z,784
2019-01-10T07:42:00.403Z,816
2019-01-10T07:43:10.467Z,852
2019-01-10T07:44:20.536Z,892
2019-01-10T07:45:30.604Z,924
2019-01-10T07:46:40.662Z,940
2019-01-10T07:47:50.459Z,940
2019-01-10T07:49:00.611Z,944
2019-01-10T07:50:10.557Z,948
2019-01-10T07:51:20.615Z,956
2019-01-10T07:52:32.252Z,964
2019-01-10T07:53:42.065Z,980
2019-01-10T07:54:52.135Z,1008
2019-01-10T07:56:01.928Z,1048
2019-01-10T07:57:11.984Z,1096
2019-01-10T07:58:21.787Z,1128
2019-01-10T07:59:31.426Z,1140
2019-01-10T08:00:41.228Z,1140
2019-01-10T08:01:51.310Z,1140
2019-01-10T08:03:01.343Z,1144
2019-01-10T08:04:11.388Z,1160
2019-01-10T08:05:20.947Z,1188
2019-01-10T08:06:31.017Z,1224
2019-01-10T08:07:40.955Z,1252
2019-01-10T08:08:51.024Z,1276
2019-01-10T08:10:00.563Z,1304
2019-01-10T08:11:10.613Z,1332
2019-01-10T08:12:20.673Z,1380
2019-01-10T08:13:30.749Z,1432
2019-01-10T08:14:40.804Z,1484
2019-01-10T08:15:50.603Z,1520
2019-01-10T08:17:00.398Z,1556
2019-01-10T08:18:10.471Z,1592
2019-01-10T08:19:20.535Z,1620
2019-01-10T08:20:30.594Z,1628
2019-01-10T08:21:40.631Z,1632
2019-01-10T08:22:50.683Z,1636
2019-01-10T08:24:00.818Z,1660
2019-01-10T08:25:10.879Z,1704
2019-01-10T08:26:20.922Z,1748
2019-01-10T08:27:30.808Z,1792
2019-01-10T08:28:40.890Z,1844
2019-01-10T08:29:50.967Z,1884
2019-01-10T08:31:03.484Z,1920
2019-01-10T08:32:13.552Z,1952
2019-01-10T08:33:23.602Z,1980
2019-01-10T08:34:33.647Z,1984
2019-01-10T08:35:43.722Z,1916
2019-01-10T08:36:53.280Z,1676
2019-01-10T08:38:03.836Z,1488
2019-01-10T08:39:13.890Z,1420
2019-01-10T08:40:23.706Z,1376
2019-01-10T08:41:33.550Z,1352
2019-01-10T08:42:43.336Z,1336
2019-01-10T08:43:53.394Z,1364
2019-01-10T08:45:03.325Z,1244
2019-01-10T08:46:13.473Z,1216
2019-01-10T08:47:23.264Z,1340
2019-01-10T08:48:33.326Z,1292
2019-01-10T08:49:43.417Z,1308
2019-01-10T08:50:53.466Z,1576
2019-01-10T08:52:03.613Z,1848
2019-01-10T08:53:13.400Z,2032
2019-01-10T08:54:23.455Z,2056
2019-01-10T08:55:33.504Z,2092
2019-01-10T08:56:43.578Z,2244
2019-01-10T08:57:53.622Z,2336
2019-01-10T08:59:05.395Z,2308
2019-01-10T09:00:17.281Z,2608
2019-01-10T09:01:27.282Z,2812
2019-01-10T09:02:38.553Z,2940
2019-01-10T09:03:49.360Z,2940
2019-01-10T09:04:59.239Z,2828
2019-01-10T09:06:15.212Z,2764
2019-01-10T09:07:25.378Z,2796
2019-01-10T09:08:35.434Z,2872
2019-01-10T09:09:45.495Z,2964
2019-01-10T09:10:55.305Z,2880
2019-01-10T09:12:05.594Z,2672
2019-01-10T09:13:15.630Z,2416
2019-01-10T09:14:25.461Z,2204
2019-01-10T09:15:41.895Z,2004
2019-01-10T09:16:51.962Z,1928
2019-01-10T09:18:02.006Z,1972
2019-01-10T09:19:12.120Z,2020
2019-01-10T09:20:21.916Z,2096
2019-01-10T09:21:31.970Z,2184
2019-01-10T09:22:41.505Z,2228
2019-01-10T09:23:51.557Z,2300
2019-01-10T09:25:01.611Z,2332
2019-01-10T09:26:11.668Z,2348
2019-01-10T09:27:21.712Z,2400
2019-01-10T09:28:31.763Z,2456
2019-01-10T09:29:41.826Z,2456
2019-01-10T09:30:51.912Z,2436
2019-01-10T09:32:03.028Z,2416
2019-01-10T09:33:13.092Z,2396
2019-01-10T09:34:31.649Z,2428
2019-01-10T09:35:41.716Z,2428
2019-01-10T09:36:51.833Z,2372
2019-01-10T09:38:01.903Z,2336
2019-01-10T09:39:11.948Z,2300
2019-01-10T09:40:22.002Z,2260
2019-01-10T09:41:32.055Z,2224
2019-01-10T09:42:41.633Z,2212
2019-01-10T09:43:51.490Z,2200
2019-01-10T09:45:01.297Z,2216
2019-01-10T09:46:11.105Z,2196
2019-01-10T09:47:21.240Z,2180
2019-01-10T09:48:31.292Z,2164
2019-01-10T09:49:41.377Z,2188
2019-01-10T09:50:51.422Z,2212
2019-01-10T09:52:03.200Z,2216
2019-01-10T09:53:13.258Z,2232
2019-01-10T09:54:23.079Z,2260
2019-01-10T09:55:33.118Z,2276
2019-01-10T09:56:42.925Z,2300
2019-01-10T09:57:52.211Z,2296
2019-01-10T09:59:02.295Z,2280
2019-01-10T10:00:12.920Z,2256
2019-01-10T10:01:23.083Z,2224
2019-01-10T10:02:32.879Z,2224
2019-01-10T10:03:42.686Z,2220
2019-01-10T10:04:52.815Z,2216
2019-01-10T10:06:12.108Z,2208
2019-01-10T10:07:22.200Z,2188
2019-01-10T10:08:32.073Z,2164
2019-01-10T10:09:42.193Z,2140
2019-01-10T10:10:52.260Z,2128
2019-01-10T10:12:02.317Z,2136
2019-01-10T10:13:12.373Z,2128
2019-01-10T10:14:22.187Z,2128
2019-01-10T10:15:31.983Z,2144
2019-01-10T10:16:42.025Z,2136
2019-01-10T10:17:52.096Z,2116
2019-01-10T10:19:02.561Z,2100
2019-01-10T10:20:14.740Z,2104
2019-01-10T10:21:24.687Z,2124
2019-01-10T10:22:33.987Z,2176
2019-01-10T10:23:44.057Z,2212
2019-01-10T10:24:53.877Z,2244
2019-01-10T10:26:03.953Z,2324
2019-01-10T10:27:14.017Z,2392
2019-01-10T10:28:24.098Z,2448
2019-01-10T10:29:34.172Z,2396
2019-01-10T10:30:43.982Z,2380
2019-01-10T10:31:54.063Z,2392
2019-01-10T10:33:04.167Z,2428
2019-01-10T10:34:14.002Z,2516
2019-01-10T10:35:24.060Z,2572
2019-01-10T10:36:34.888Z,2668
2019-01-10T10:37:44.719Z,2776
2019-01-10T10:38:54.543Z,2900
2019-01-10T10:40:05.392Z,2980
2019-01-10T10:41:15.496Z,3088
2019-01-10T10:42:25.314Z,3208
2019-01-10T10:43:35.386Z,3244
2019-01-10T10:44:45.468Z,3256
2019-01-10T10:46:03.893Z,3408
2019-01-10T10:47:13.723Z,3456
2019-01-10T10:48:23.887Z,3512
2019-01-10T10:49:34.056Z,3532
2019-01-10T10:50:44.138Z,3656
2019-01-10T10:51:54.202Z,3656
2019-01-10T10:53:04.009Z,3556
2019-01-10T10:54:14.084Z,3512
2019-01-10T10:55:24.026Z,3416
2019-01-10T10:56:34.136Z,3464
2019-01-10T10:57:44.300Z,3228
2019-01-10T10:58:54.379Z,3076
2019-01-10T11:00:05.031Z,2960
2019-01-10T11:01:15.250Z,2828
2019-01-10T11:02:25.063Z,2816
2019-01-10T11:03:35.148Z,2824
2019-01-10T11:04:46.740Z,2872
2019-01-10T11:05:56.833Z,2836
2019-01-10T11:07:08.347Z,2756
2019-01-10T11:08:18.431Z,2712
2019-01-10T11:09:28.516Z,2648
2019-01-10T11:10:38.609Z,2572
2019-01-10T11:11:48.725Z,2488
2019-01-10T11:12:58.804Z,2500
2019-01-10T11:14:13.402Z,2572
2019-01-10T11:15:23.745Z,2572
2019-01-10T11:16:33.827Z,2568
2019-01-10T11:17:43.914Z,2520
2019-01-10T11:18:53.994Z,2468
2019-01-10T11:20:04.749Z,2392
2019-01-10T11:21:14.904Z,2320
2019-01-10T11:22:24.456Z,2256
2019-01-10T11:23:34.555Z,2156
2019-01-10T11:24:44.645Z,2072
2019-01-10T11:25:54.746Z,2044
2019-01-10T11:27:04.828Z,2092
2019-01-10T11:28:14.930Z,2160
2019-01-10T11:29:25.038Z,2296
2019-01-10T11:30:35.114Z,2344
2019-01-10T11:31:45.639Z,2536
2019-01-10T11:32:56.361Z,2688
2019-01-10T11:34:06.365Z,2824
2019-01-10T11:35:16.503Z,2940
2019-01-10T11:36:26.361Z,3056
2019-01-10T11:37:36.436Z,3156
2019-01-10T11:38:47.726Z,3244
2019-01-10T11:39:57.815Z,3320
2019-01-10T11:41:10.105Z,3372
2019-01-10T11:42:20.184Z,3364
2019-01-10T11:43:30.367Z,3316
2019-01-10T11:44:40.482Z,3236
2019-01-10T11:45:50.600Z,3136
2019-01-10T11:47:03.166Z,3056
2019-01-10T11:48:13.005Z,2972
2019-01-10T11:49:23.087Z,2848
2019-01-10T11:50:33.202Z,2748
2019-01-10T11:51:43.303Z,2656
2019-01-10T11:52:53.123Z,2520
2019-01-10T11:54:03.204Z,2460
2019-01-10T11:55:13.299Z,2392
2019-01-10T11:56:23.557Z,2320
2019-01-10T11:57:33.460Z,2240
2019-01-10T11:58:43.564Z,2172
2019-01-10T11:59:53.639Z,2140
2019-01-10T12:01:04.001Z,2120
2019-01-10T12:02:14.083Z,2116
2019-01-10T12:03:23.889Z,2112
2019-01-10T12:04:34.085Z,2140
2019-01-10T12:05:55.482Z,2192
2019-01-10T12:07:05.807Z,2256
2019-01-10T12:08:15.368Z,2324
2019-01-10T12:09:25.501Z,2324
2019-01-10T12:10:35.584Z,2324
2019-01-10T12:11:45.646Z,2304
2019-01-10T12:12:55.472Z,2268
2019-01-10T12:14:05.325Z,2204
2019-01-10T12:15:15.673Z,2100
2019-01-10T12:16:33.441Z,2028
2019-01-10T12:17:43.749Z,2016
2019-01-10T12:19:03.009Z,1988
2019-01-10T12:20:12.846Z,1944
2019-01-10T12:21:22.959Z,1876
2019-01-10T12:22:33.034Z,1644
2019-01-10T12:23:43.108Z,1576
2019-01-10T12:24:52.660Z,1692
2019-01-10T12:26:03.845Z,1720
2019-01-10T12:27:13.714Z,1832
2019-01-10T12:28:23.828Z,2012
2019-01-10T12:29:43.375Z,2056
2019-01-10T12:30:53.494Z,2000
2019-01-10T12:32:03.965Z,1892
2019-01-10T12:33:14.455Z,1728
2019-01-10T12:34:24.530Z,1680
2019-01-10T12:35:34.618Z,1612
2019-01-10T12:36:44.745Z,1588
2019-01-10T12:37:54.830Z,1512
2019-01-10T12:39:06.007Z,1396
2019-01-10T12:40:16.130Z,1432
2019-01-10T12:41:26.331Z,1364
2019-01-10T12:42:36.404Z,1312
2019-01-10T12:43:46.506Z,1524
2019-01-10T12:44:56.316Z,1748
2019-01-10T12:46:08.409Z,1856
2019-01-10T12:47:18.484Z,1876
2019-01-10T12:48:28.595Z,1876
2019-01-10T12:49:38.691Z,1968
2019-01-10T12:50:48.767Z,2032
2019-01-10T12:51:58.882Z,1872
2019-01-10T12:53:08.940Z,1748
2019-01-10T12:54:19.012Z,1676
2019-01-10T12:55:29.793Z,1712
2019-01-10T12:56:39.855Z,1824
2019-01-10T12:57:49.949Z,1960
2019-01-10T12:59:00.022Z,2032
2019-01-10T13:00:10.680Z,2108
2019-01-10T13:01:21.094Z,2204
2019-01-10T13:02:31.159Z,2284
2019-01-10T13:03:41.235Z,2320
2019-01-10T13:04:51.326Z,2280
2019-01-10T13:06:01.127Z,2200
2019-01-10T13:07:11.218Z,2176
2019-01-10T13:08:21.655Z,2080
2019-01-10T13:09:31.774Z,1908
2019-01-10T13:10:42.092Z,1876
2019-01-10T13:11:52.439Z,1856
2019-01-10T13:13:02.528Z,1884
2019-01-10T13:14:12.672Z,1912
2019-01-10T13:15:22.855Z,1904
2019-01-10T13:16:32.947Z,1884
2019-01-10T13:17:42.777Z,1948
2019-01-10T13:18:52.868Z,1928
2019-01-10T13:20:05.518Z,1908
2019-01-10T13:21:16.771Z,1740
2019-01-10T13:22:27.116Z,1608
2019-01-10T13:23:37.406Z,1496
2019-01-10T13:24:49.128Z,1352
2019-01-10T13:26:07.262Z,1188
2019-01-10T13:27:17.420Z,1056
2019-01-10T13:28:27.532Z,928
2019-01-10T13:29:37.629Z,792
2019-01-10T13:30:48.430Z,672
2019-01-10T13:31:58.532Z,644
2019-01-10T13:33:08.630Z,632
2019-01-10T13:34:18.703Z,608
2019-01-10T13:35:28.844Z,612
2019-01-10T13:36:38.928Z,664
2019-01-10T13:37:49.074Z,688
2019-01-10T13:38:59.158Z,724
2019-01-10T13:40:09.230Z,752
2019-01-10T13:41:19.301Z,780
2019-01-10T13:42:29.539Z,800
2019-01-10T13:43:39.686Z,816
2019-01-10T13:44:49.784Z,848
2019-01-10T13:46:01.369Z,860
2019-01-10T13:47:11.178Z,872
2019-01-10T13:48:21.464Z,888
2019-01-10T13:49:31.606Z,892
2019-01-10T13:50:41.823Z,904
2019-01-10T13:51:51.888Z,916
2019-01-10T13:53:01.959Z,928
2019-01-10T13:54:12.082Z,908
2019-01-10T13:55:22.171Z,880
2019-01-10T13:56:32.272Z,844
2019-01-10T13:57:42.361Z,812
2019-01-10T13:58:52.227Z,784
2019-01-10T14:00:02.111Z,760
2019-01-10T14:01:12.356Z,740
2019-01-10T14:02:22.207Z,720
2019-01-10T14:03:31.777Z,704
2019-01-10T14:04:41.846Z,692
2019-01-10T14:05:51.978Z,684
2019-01-10T14:07:03.206Z,684
2019-01-10T14:08:13.310Z,692
2019-01-10T14:09:23.150Z,704
2019-01-10T14:10:33.394Z,716
2019-01-10T14:11:43.208Z,720
2019-01-10T14:12:53.280Z,712
2019-01-10T14:14:03.122Z,708
2019-01-10T14:15:13.466Z,712
2019-01-10T14:16:23.310Z,712
2019-01-10T14:17:33.163Z,688
2019-01-10T14:18:43.266Z,668
2019-01-10T14:19:53.332Z,648
2019-01-10T14:21:03.171Z,640
2019-01-10T14:22:13.302Z,636
2019-01-10T14:23:23.414Z,644
2019-01-10T14:24:33.222Z,652
2019-01-10T14:25:43.357Z,652
2019-01-10T14:26:53.427Z,656
2019-01-10T14:28:07.227Z,660
2019-01-10T14:29:17.855Z,668
2019-01-10T14:30:27.666Z,668
2019-01-10T14:31:37.848Z,660
2019-01-10T14:32:48.162Z,652
2019-01-10T14:33:58.265Z,636
2019-01-10T14:35:08.441Z,612
2019-01-10T14:36:18.235Z,596
2019-01-10T14:37:28.335Z,588
2019-01-10T14:38:37.636Z,580
2019-01-10T14:39:47.438Z,584
2019-01-10T14:40:57.641Z,588
2019-01-10T14:42:10.290Z,600
2019-01-10T14:43:20.382Z,596
2019-01-10T14:44:30.455Z,588
2019-01-10T14:45:40.815Z,568
2019-01-10T14:46:50.946Z,552
2019-01-10T14:48:07.194Z,528
2019-01-10T14:49:17.019Z,500
2019-01-10T14:50:27.091Z,468
2019-01-10T14:51:37.562Z,440
2019-01-10T14:52:47.372Z,416
2019-01-10T14:53:57.476Z,384
2019-01-10T14:55:08.260Z,364
2019-01-10T14:56:18.065Z,348
2019-01-10T14:57:28.118Z,336
2019-01-10T14:58:39.313Z,316
2019-01-10T14:59:49.396Z,304
2019-01-10T15:01:00.114Z,288
2019-01-10T15:02:10.474Z,272
2019-01-10T15:03:20.772Z,256
2019-01-10T15:04:30.907Z,244
2019-01-10T15:05:41.863Z,224
2019-01-10T15:06:51.954Z,208
2019-01-10T15:08:02.713Z,196
2019-01-10T15:09:12.790Z,180
2019-01-10T15:10:22.949Z,164
2019-01-10T15:11:33.082Z,152
2019-01-10T15:12:44.419Z,132
2019-01-10T15:13:54.238Z,112
2019-01-10T15:15:04.073Z,100
2019-01-10T15:16:13.629Z,88
2019-01-10T15:17:24.000Z,84
2019-01-10T15:18:33.839Z,76
2019-01-10T15:19:43.914Z,68
2019-01-10T15:20:54.051Z,60
2019-01-10T15:22:04.111Z,52
2019-01-10T15:23:14.186Z,48
2019-01-10T15:24:24.261Z,40
2019-01-10T15:25:34.382Z,32
2019-01-10T15:26:44.434Z,28
2019-01-10T15:27:54.728Z,24
2019-01-10T15:29:05.940Z,20
2019-01-10T15:30:16.339Z,16
2019-01-10T15:31:26.415Z,12
2019-01-10T15:32:36.493Z,12
2019-01-10T15:33:46.575Z,8
2019-01-10T15:34:56.658Z,8
2019-01-10T15:36:06.468Z,8
2019-01-10T15:37:16.539Z,4
2019-01-10T15:38:26.658Z,4
2019-01-10T15:39:36.779Z,4
2019-01-10T15:40:46.909Z,4
2019-01-10T15:41:56.994Z,4
2019-01-10T15:43:07.083Z,0
2019-01-10T15:44:17.170Z,0
2019-01-10T15:45:26.801Z,4
2019-01-10T15:46:37.321Z,0
2019-01-10T15:47:47.400Z,0
2019-01-10T15:48:57.213Z,0
2019-01-10T15:50:07.332Z,0
2019-01-10T15:51:17.133Z,0
2019-01-10T15:52:26.956Z,0
2019-01-10T15:53:37.027Z,0
2019-01-10T15:54:47.098Z,0
2019-01-10T15:55:56.661Z,0
2019-01-10T15:57:08.209Z,0
2019-01-10T15:58:18.488Z,0
2019-01-10T15:59:28.795Z,0
2019-01-10T16:00:38.882Z,0
2019-01-10T16:01:48.948Z,0
2019-01-10T16:02:59.028Z,0
2019-01-10T16:04:14.856Z,0
2019-01-10T16:05:24.755Z,0
2019-01-10T16:06:34.830Z,0
2019-01-10T16:07:44.704Z,0
2019-01-10T16:08:54.803Z,0
2019-01-10T16:10:05.560Z,0
2019-01-10T16:11:15.660Z,0
2019-01-10T16:12:26.076Z,0
2019-01-10T16:13:36.142Z,0
2019-01-10T16:14:46.244Z,0
2019-01-10T16:15:56.048Z,0
2019-01-10T16:17:06.110Z,0
2019-01-10T16:18:16.023Z,0
2019-01-10T16:19:26.097Z,0
2019-01-10T16:20:36.238Z,0
2019-01-10T16:21:46.327Z,0
2019-01-10T16:22:56.414Z,0
2019-01-10T16:24:06.525Z,0
2019-01-10T16:25:16.364Z,0
2019-01-10T16:26:27.436Z,0
2019-01-10T16:27:37.507Z,0
2019-01-10T16:28:47.624Z,0
2019-01-10T16:29:58.455Z,0
2019-01-10T16:31:12.014Z,0
2019-01-10T16:32:22.145Z,0
2019-01-10T16:33:32.284Z,0
2019-01-10T16:34:42.362Z,0
2019-01-10T16:35:52.465Z,0
2019-01-10T16:37:02.342Z,0
2019-01-10T16:38:12.460Z,0
2019-01-10T16:39:22.284Z,0
2019-01-10T16:40:32.401Z,0
2019-01-10T16:41:42.487Z,0
2019-01-10T16:42:52.597Z,0
2019-01-10T16:44:03.645Z,0
2019-01-10T16:45:13.748Z,0
2019-01-10T16:46:23.833Z,0
2019-01-10T16:47:39.315Z,0
2019-01-10T16:48:49.398Z,0
2019-01-10T16:50:03.413Z,0
2019-01-10T16:51:13.503Z,0
2019-01-10T16:52:23.582Z,0
2019-01-10T16:53:33.690Z,0
2019-01-10T16:54:43.496Z,0
2019-01-10T16:55:53.571Z,0
2019-01-10T16:57:03.667Z,0
2019-01-10T16:58:13.840Z,0
2019-01-10T16:59:23.674Z,0
2019-01-10T17:00:33.750Z,0